sensor_id;sensor_type;location;lat;lon;timestamp;P1;durP1;ratioP1;P2;durP2;ratioP2
78968;SDS011;68369;51.050;17.018;2023-05-21T00:00:42;26.40;;;17.20;;
78968;SDS011;68369;51.050;17.018;2023-05-21T00:03:38;22.90;;;17.40;;
78968;SDS011;68369;51.050;17.018;2023-05-21T00:06:27;22.70;;;16.80;;
78968;SDS011;68369;51.050;17.018;2023-05-21T00:09:12;20.90;;;15.60;;
78968;SDS011;68369;51.050;17.018;2023-05-21T00:11:58;21.90;;;15.30;;
78968;SDS011;68369;51.050;17.018;2023-05-21T00:14:43;22.40;;;15.20;;
78968;SDS011;68369;51.050;17.018;2023-05-21T00:17:28;19.40;;;14.60;;
78968;SDS011;68369;51.050;17.018;2023-05-21T00:20:14;19.70;;;14.40;;
78968;SDS011;68369;51.050;17.018;2023-05-21T00:23:00;22.70;;;15.10;;
78968;SDS011;68369;51.050;17.018;2023-05-21T00:25:51;19.10;;;14.20;;
78968;SDS011;68369;51.050;17.018;2023-05-21T00:28:37;19.90;;;13.90;;
78968;SDS011;68369;51.050;17.018;2023-05-21T00:31:22;19.50;;;13.50;;
78968;SDS011;68369;51.050;17.018;2023-05-21T00:34:07;17.90;;;14.30;;
78968;SDS011;68369;51.050;17.018;2023-05-21T00:36:52;19.50;;;13.80;;
78968;SDS011;68369;51.050;17.018;2023-05-21T00:39:39;18.70;;;13.60;;
78968;SDS011;68369;51.050;17.018;2023-05-21T00:42:28;18.60;;;13.70;;
78968;SDS011;68369;51.050;17.018;2023-05-21T00:45:17;17.60;;;13.30;;
78968;SDS011;68369;51.050;17.018;2023-05-21T00:48:03;19.30;;;13.70;;
78968;SDS011;68369;51.050;17.018;2023-05-21T00:50:52;19.80;;;14.00;;
78968;SDS011;68369;51.050;17.018;2023-05-21T00:53:39;20.50;;;14.60;;
78968;SDS011;68369;51.050;17.018;2023-05-21T00:56:27;18.10;;;13.20;;
78968;SDS011;68369;51.050;17.018;2023-05-21T00:59:14;19.10;;;13.00;;
78968;SDS011;68369;51.050;17.018;2023-05-21T01:02:03;18.10;;;13.50;;
78968;SDS011;68369;51.050;17.018;2023-05-21T01:04:57;18.40;;;13.50;;
78968;SDS011;68369;51.050;17.018;2023-05-21T01:07:45;18.20;;;13.20;;
78968;SDS011;68369;51.050;17.018;2023-05-21T01:10:30;21.00;;;12.50;;
78968;SDS011;68369;51.050;17.018;2023-05-21T01:13:16;16.90;;;13.10;;
78968;SDS011;68369;51.050;17.018;2023-05-21T01:16:04;13.80;;;10.30;;
78968;SDS011;68369;51.050;17.018;2023-05-21T01:18:50;15.40;;;11.70;;
78968;SDS011;68369;51.050;17.018;2023-05-21T01:21:40;17.10;;;11.50;;
78968;SDS011;68369;51.050;17.018;2023-05-21T01:24:36;20.10;;;12.50;;
78968;SDS011;68369;51.050;17.018;2023-05-21T01:27:22;15.50;;;11.40;;
78968;SDS011;68369;51.050;17.018;2023-05-21T01:30:07;14.20;;;10.40;;
78968;SDS011;68369;51.050;17.018;2023-05-21T01:32:55;15.80;;;10.80;;
78968;SDS011;68369;51.050;17.018;2023-05-21T01:35:44;14.90;;;10.30;;
78968;SDS011;68369;51.050;17.018;2023-05-21T01:38:42;14.50;;;11.00;;
78968;SDS011;68369;51.050;17.018;2023-05-21T01:41:39;14.10;;;11.40;;
78968;SDS011;68369;51.050;17.018;2023-05-21T01:44:28;15.00;;;11.40;;
78968;SDS011;68369;51.050;17.018;2023-05-21T01:47:16;15.60;;;11.30;;
78968;SDS011;68369;51.050;17.018;2023-05-21T01:50:03;15.10;;;10.40;;
78968;SDS011;68369;51.050;17.018;2023-05-21T01:52:53;15.40;;;10.70;;
78968;SDS011;68369;51.050;17.018;2023-05-21T01:55:47;14.20;;;10.40;;
78968;SDS011;68369;51.050;17.018;2023-05-21T01:58:32;15.00;;;11.20;;
78968;SDS011;68369;51.050;17.018;2023-05-21T02:01:18;17.00;;;10.90;;
78968;SDS011;68369;51.050;17.018;2023-05-21T02:04:05;13.30;;;10.50;;
78968;SDS011;68369;51.050;17.018;2023-05-21T02:06:53;17.20;;;11.50;;
78968;SDS011;68369;51.050;17.018;2023-05-21T02:09:39;15.60;;;10.40;;
78968;SDS011;68369;51.050;17.018;2023-05-21T02:12:25;13.00;;;9.80;;
78968;SDS011;68369;51.050;17.018;2023-05-21T02:15:13;13.50;;;10.60;;
78968;SDS011;68369;51.050;17.018;2023-05-21T02:18:04;14.30;;;10.90;;
78968;SDS011;68369;51.050;17.018;2023-05-21T02:20:51;13.20;;;10.10;;
78968;SDS011;68369;51.050;17.018;2023-05-21T02:23:36;15.00;;;9.90;;
78968;SDS011;68369;51.050;17.018;2023-05-21T02:26:23;16.00;;;10.10;;
78968;SDS011;68369;51.050;17.018;2023-05-21T02:29:11;14.00;;;9.50;;
78968;SDS011;68369;51.050;17.018;2023-05-21T02:31:56;12.10;;;8.80;;
78968;SDS011;68369;51.050;17.018;2023-05-21T02:34:42;12.50;;;9.50;;
78968;SDS011;68369;51.050;17.018;2023-05-21T02:37:30;11.50;;;9.70;;
78968;SDS011;68369;51.050;17.018;2023-05-21T02:40:22;13.50;;;10.40;;
78968;SDS011;68369;51.050;17.018;2023-05-21T02:43:09;12.90;;;9.70;;
78968;SDS011;68369;51.050;17.018;2023-05-21T02:45:55;14.00;;;10.50;;
78968;SDS011;68369;51.050;17.018;2023-05-21T02:51:42;14.50;;;10.90;;
78968;SDS011;68369;51.050;17.018;2023-05-21T02:54:30;19.90;;;14.00;;
78968;SDS011;68369;51.050;17.018;2023-05-21T02:57:16;21.40;;;14.20;;
78968;SDS011;68369;51.050;17.018;2023-05-21T03:00:03;19.80;;;13.60;;
78968;SDS011;68369;51.050;17.018;2023-05-21T03:05:42;16.80;;;11.70;;
78968;SDS011;68369;51.050;17.018;2023-05-21T03:08:27;16.80;;;12.10;;
78968;SDS011;68369;51.050;17.018;2023-05-21T03:11:13;13.90;;;10.10;;
78968;SDS011;68369;51.050;17.018;2023-05-21T03:13:59;13.70;;;9.80;;
78968;SDS011;68369;51.050;17.018;2023-05-21T03:16:44;14.30;;;10.30;;
78968;SDS011;68369;51.050;17.018;2023-05-21T03:19:33;14.00;;;10.50;;
78968;SDS011;68369;51.050;17.018;2023-05-21T03:22:26;12.70;;;10.10;;
78968;SDS011;68369;51.050;17.018;2023-05-21T03:25:12;14.30;;;10.30;;
78968;SDS011;68369;51.050;17.018;2023-05-21T03:28:02;13.50;;;9.30;;
78968;SDS011;68369;51.050;17.018;2023-05-21T03:30:48;13.40;;;9.30;;
78968;SDS011;68369;51.050;17.018;2023-05-21T03:33:36;14.40;;;9.50;;
78968;SDS011;68369;51.050;17.018;2023-05-21T03:36:22;13.60;;;9.60;;
78968;SDS011;68369;51.050;17.018;2023-05-21T03:39:07;14.30;;;9.80;;
78968;SDS011;68369;51.050;17.018;2023-05-21T03:41:56;12.70;;;9.40;;
78968;SDS011;68369;51.050;17.018;2023-05-21T03:44:46;15.70;;;9.40;;
78968;SDS011;68369;51.050;17.018;2023-05-21T03:47:32;16.90;;;9.90;;
78968;SDS011;68369;51.050;17.018;2023-05-21T03:50:18;13.30;;;9.10;;
78968;SDS011;68369;51.050;17.018;2023-05-21T03:53:04;12.40;;;9.40;;
78968;SDS011;68369;51.050;17.018;2023-05-21T03:55:50;13.90;;;9.50;;
78968;SDS011;68369;51.050;17.018;2023-05-21T03:58:40;11.70;;;9.30;;
78968;SDS011;68369;51.050;17.018;2023-05-21T04:01:27;14.00;;;9.20;;
78968;SDS011;68369;51.050;17.018;2023-05-21T04:04:13;10.30;;;8.20;;
78968;SDS011;68369;51.050;17.018;2023-05-21T04:07:00;13.10;;;9.20;;
78968;SDS011;68369;51.050;17.018;2023-05-21T04:09:45;12.20;;;8.50;;
78968;SDS011;68369;51.050;17.018;2023-05-21T04:12:31;12.90;;;9.70;;
78968;SDS011;68369;51.050;17.018;2023-05-21T04:15:18;13.00;;;10.10;;
78968;SDS011;68369;51.050;17.018;2023-05-21T04:18:03;12.50;;;9.50;;
78968;SDS011;68369;51.050;17.018;2023-05-21T04:20:51;14.50;;;9.10;;
78968;SDS011;68369;51.050;17.018;2023-05-21T04:23:38;12.70;;;8.30;;
78968;SDS011;68369;51.050;17.018;2023-05-21T04:26:24;15.10;;;9.80;;
78968;SDS011;68369;51.050;17.018;2023-05-21T04:29:10;11.70;;;9.30;;
78968;SDS011;68369;51.050;17.018;2023-05-21T04:31:56;13.60;;;9.30;;
78968;SDS011;68369;51.050;17.018;2023-05-21T04:34:42;16.80;;;9.40;;
78968;SDS011;68369;51.050;17.018;2023-05-21T04:37:30;11.10;;;8.70;;
78968;SDS011;68369;51.050;17.018;2023-05-21T04:40:19;13.60;;;9.00;;
78968;SDS011;68369;51.050;17.018;2023-05-21T04:45:57;13.00;;;8.40;;
78968;SDS011;68369;51.050;17.018;2023-05-21T04:48:44;11.80;;;9.20;;
78968;SDS011;68369;51.050;17.018;2023-05-21T04:51:32;11.90;;;8.70;;
78968;SDS011;68369;51.050;17.018;2023-05-21T04:54:18;11.20;;;8.00;;
78968;SDS011;68369;51.050;17.018;2023-05-21T04:57:05;11.00;;;8.70;;
78968;SDS011;68369;51.050;17.018;2023-05-21T04:59:52;11.10;;;8.70;;
78968;SDS011;68369;51.050;17.018;2023-05-21T05:02:39;12.60;;;8.60;;
78968;SDS011;68369;51.050;17.018;2023-05-21T05:05:24;11.10;;;8.10;;
78968;SDS011;68369;51.050;17.018;2023-05-21T05:08:11;11.70;;;8.30;;
78968;SDS011;68369;51.050;17.018;2023-05-21T05:11:00;12.00;;;8.20;;
78968;SDS011;68369;51.050;17.018;2023-05-21T05:13:47;10.60;;;7.40;;
78968;SDS011;68369;51.050;17.018;2023-05-21T05:16:33;9.40;;;7.70;;
78968;SDS011;68369;51.050;17.018;2023-05-21T05:19:20;12.20;;;7.90;;
78968;SDS011;68369;51.050;17.018;2023-05-21T05:22:06;10.90;;;8.60;;
78968;SDS011;68369;51.050;17.018;2023-05-21T05:24:56;11.30;;;8.20;;
78968;SDS011;68369;51.050;17.018;2023-05-21T05:27:41;9.70;;;7.40;;
78968;SDS011;68369;51.050;17.018;2023-05-21T05:30:27;9.80;;;7.40;;
78968;SDS011;68369;51.050;17.018;2023-05-21T05:33:13;11.60;;;8.10;;
78968;SDS011;68369;51.050;17.018;2023-05-21T05:35:59;9.30;;;7.50;;
78968;SDS011;68369;51.050;17.018;2023-05-21T05:38:44;10.50;;;7.90;;
78968;SDS011;68369;51.050;17.018;2023-05-21T05:41:30;10.60;;;7.60;;
78968;SDS011;68369;51.050;17.018;2023-05-21T05:44:15;14.70;;;7.90;;
78968;SDS011;68369;51.050;17.018;2023-05-21T05:47:00;10.80;;;7.20;;
78968;SDS011;68369;51.050;17.018;2023-05-21T05:49:46;9.80;;;7.10;;
78968;SDS011;68369;51.050;17.018;2023-05-21T05:52:32;11.70;;;7.50;;
78968;SDS011;68369;51.050;17.018;2023-05-21T05:55:17;9.90;;;7.40;;
78968;SDS011;68369;51.050;17.018;2023-05-21T05:58:03;8.40;;;6.40;;
78968;SDS011;68369;51.050;17.018;2023-05-21T06:00:48;9.00;;;6.60;;
78968;SDS011;68369;51.050;17.018;2023-05-21T06:03:35;10.40;;;6.50;;
78968;SDS011;68369;51.050;17.018;2023-05-21T06:06:21;7.00;;;5.30;;
78968;SDS011;68369;51.050;17.018;2023-05-21T06:09:06;9.10;;;6.30;;
78968;SDS011;68369;51.050;17.018;2023-05-21T06:11:51;7.40;;;6.20;;
78968;SDS011;68369;51.050;17.018;2023-05-21T06:14:37;10.60;;;6.60;;
78968;SDS011;68369;51.050;17.018;2023-05-21T06:17:23;8.70;;;6.50;;
78968;SDS011;68369;51.050;17.018;2023-05-21T06:23:24;9.50;;;5.90;;
78968;SDS011;68369;51.050;17.018;2023-05-21T06:29:11;7.60;;;5.40;;
78968;SDS011;68369;51.050;17.018;2023-05-21T06:32:00;6.10;;;4.50;;
78968;SDS011;68369;51.050;17.018;2023-05-21T06:34:46;7.60;;;5.50;;
78968;SDS011;68369;51.050;17.018;2023-05-21T06:37:32;9.50;;;5.50;;
78968;SDS011;68369;51.050;17.018;2023-05-21T06:40:17;7.50;;;5.90;;
78968;SDS011;68369;51.050;17.018;2023-05-21T06:43:03;7.80;;;5.50;;
78968;SDS011;68369;51.050;17.018;2023-05-21T06:45:49;7.90;;;5.70;;
78968;SDS011;68369;51.050;17.018;2023-05-21T06:48:35;9.30;;;5.90;;
78968;SDS011;68369;51.050;17.018;2023-05-21T06:51:22;8.90;;;5.40;;
78968;SDS011;68369;51.050;17.018;2023-05-21T06:54:08;7.40;;;5.50;;
78968;SDS011;68369;51.050;17.018;2023-05-21T06:56:53;8.50;;;5.50;;
78968;SDS011;68369;51.050;17.018;2023-05-21T06:59:39;9.10;;;5.80;;
78968;SDS011;68369;51.050;17.018;2023-05-21T07:02:25;7.80;;;5.10;;
78968;SDS011;68369;51.050;17.018;2023-05-21T07:05:11;7.10;;;5.00;;
78968;SDS011;68369;51.050;17.018;2023-05-21T07:07:56;7.90;;;5.30;;
78968;SDS011;68369;51.050;17.018;2023-05-21T07:10:42;6.80;;;5.80;;
78968;SDS011;68369;51.050;17.018;2023-05-21T07:13:28;9.40;;;5.40;;
78968;SDS011;68369;51.050;17.018;2023-05-21T07:16:14;5.90;;;5.30;;
78968;SDS011;68369;51.050;17.018;2023-05-21T07:19:02;8.70;;;5.00;;
78968;SDS011;68369;51.050;17.018;2023-05-21T07:21:48;9.50;;;5.30;;
78968;SDS011;68369;51.050;17.018;2023-05-21T07:24:34;5.50;;;4.70;;
78968;SDS011;68369;51.050;17.018;2023-05-21T07:27:19;7.10;;;5.00;;
78968;SDS011;68369;51.050;17.018;2023-05-21T07:30:10;6.70;;;5.20;;
78968;SDS011;68369;51.050;17.018;2023-05-21T07:52:47;7.80;;;4.80;;
78968;SDS011;68369;51.050;17.018;2023-05-21T07:56:10;7.30;;;4.20;;
78968;SDS011;68369;51.050;17.018;2023-05-21T08:04:12;8.20;;;5.00;;
78968;SDS011;68369;51.050;17.018;2023-05-21T08:13:22;7.10;;;4.30;;
78968;SDS011;68369;51.050;17.018;2023-05-21T08:45:52;6.70;;;4.50;;
78968;SDS011;68369;51.050;17.018;2023-05-21T08:49:40;6.00;;;4.50;;
78968;SDS011;68369;51.050;17.018;2023-05-21T08:52:30;8.20;;;4.90;;
78968;SDS011;68369;51.050;17.018;2023-05-21T08:58:07;6.80;;;4.70;;
78968;SDS011;68369;51.050;17.018;2023-05-21T09:00:55;7.50;;;5.00;;
78968;SDS011;68369;51.050;17.018;2023-05-21T09:03:45;9.60;;;5.20;;
78968;SDS011;68369;51.050;17.018;2023-05-21T09:06:36;10.60;;;5.50;;
78968;SDS011;68369;51.050;17.018;2023-05-21T09:09:46;9.00;;;4.50;;
78968;SDS011;68369;51.050;17.018;2023-05-21T09:12:43;9.80;;;5.30;;
78968;SDS011;68369;51.050;17.018;2023-05-21T09:15:39;5.50;;;3.90;;
78968;SDS011;68369;51.050;17.018;2023-05-21T09:18:26;16.00;;;6.30;;
78968;SDS011;68369;51.050;17.018;2023-05-21T09:24:11;13.30;;;6.40;;
78968;SDS011;68369;51.050;17.018;2023-05-21T09:26:59;15.10;;;5.80;;
78968;SDS011;68369;51.050;17.018;2023-05-21T09:29:45;7.80;;;4.20;;
78968;SDS011;68369;51.050;17.018;2023-05-21T09:32:30;12.30;;;4.50;;
78968;SDS011;68369;51.050;17.018;2023-05-21T09:35:16;7.10;;;4.30;;
78968;SDS011;68369;51.050;17.018;2023-05-21T09:44:25;5.60;;;3.70;;
78968;SDS011;68369;51.050;17.018;2023-05-21T09:47:11;8.20;;;4.10;;
78968;SDS011;68369;51.050;17.018;2023-05-21T09:49:57;6.00;;;3.40;;
78968;SDS011;68369;51.050;17.018;2023-05-21T09:52:43;5.30;;;3.10;;
78968;SDS011;68369;51.050;17.018;2023-05-21T09:55:31;5.30;;;3.30;;
78968;SDS011;68369;51.050;17.018;2023-05-21T09:58:21;9.20;;;3.80;;
78968;SDS011;68369;51.050;17.018;2023-05-21T10:01:06;6.30;;;3.60;;
78968;SDS011;68369;51.050;17.018;2023-05-21T10:07:12;4.90;;;3.20;;
78968;SDS011;68369;51.050;17.018;2023-05-21T10:10:02;5.40;;;2.90;;
78968;SDS011;68369;51.050;17.018;2023-05-21T10:15:57;5.90;;;3.30;;
78968;SDS011;68369;51.050;17.018;2023-05-21T10:18:47;5.30;;;4.20;;
78968;SDS011;68369;51.050;17.018;2023-05-21T10:21:38;4.60;;;3.00;;
78968;SDS011;68369;51.050;17.018;2023-05-21T10:24:26;8.30;;;4.30;;
78968;SDS011;68369;51.050;17.018;2023-05-21T10:27:15;4.90;;;3.60;;
